createdAt,value
2022-08-07T00:02:35.425Z,102769.78
2022-08-07T00:04:09.386Z,102771.03
2022-08-07T00:06:51.289Z,102769.28
2022-08-07T00:09:21.404Z,102766.13
2022-08-07T00:11:55.695Z,102767.19
2022-08-07T00:14:30.206Z,102764.88
2022-08-07T00:16:59.406Z,102755.03
2022-08-07T00:20:01.649Z,102754.31
2022-08-07T00:22:14.981Z,102758.78
2022-08-07T00:24:51.359Z,102759.03
2022-08-07T00:27:17.825Z,102749.59
2022-08-07T00:29:44.376Z,102747.22
2022-08-07T00:32:13.942Z,102749.06
2022-08-07T00:34:41.182Z,102741.91
2022-08-07T00:37:07.838Z,102739.44
2022-08-07T00:39:35.830Z,102746.69
2022-08-07T00:42:05.211Z,102737.28
2022-08-07T00:44:35.158Z,102741.00
2022-08-07T00:47:06.496Z,102738.38
2022-08-07T00:50:19.950Z,102737.66
2022-08-07T00:52:29.457Z,102738.44
2022-08-07T00:55:04.946Z,102735.75
2022-08-07T00:57:37.315Z,102726.56
2022-08-07T01:00:06.860Z,102732.53
2022-08-07T01:02:35.675Z,102730.81
2022-08-07T01:05:19.064Z,102723.28
2022-08-07T01:07:46.875Z,102731.22
2022-08-07T01:10:17.107Z,102723.47
2022-08-07T01:12:44.915Z,102726.09
2022-08-07T01:15:21.986Z,102731.50
2022-08-07T01:17:48.667Z,102728.97
2022-08-07T01:20:16.743Z,102726.34
2022-08-07T01:22:54.147Z,102732.69
2022-08-07T01:25:54.836Z,102729.47
2022-08-07T01:28:18.916Z,102728.63
2022-08-07T01:30:47.115Z,102721.69
2022-08-07T01:33:17.965Z,102722.47
2022-08-07T01:35:53.183Z,102721.34
2022-08-07T01:38:25.017Z,102724.91
2022-08-07T01:40:55.148Z,102722.38
2022-08-07T01:43:23.018Z,102719.16
2022-08-07T01:45:54.340Z,102711.28
2022-08-07T01:48:29.462Z,102715.63
2022-08-07T01:51:24.095Z,102715.94
2022-08-07T01:54:12.540Z,102714.16
2022-08-07T01:56:46.663Z,102709.00
2022-08-07T01:59:22.845Z,102709.03
2022-08-07T02:02:04.149Z,102709.78
2022-08-07T02:04:56.427Z,102714.03
2022-08-07T02:07:35.826Z,102704.78
2022-08-07T02:10:14.511Z,102709.16
2022-08-07T02:12:43.603Z,102707.47
2022-08-07T02:15:15.037Z,102705.13
2022-08-07T02:17:49.492Z,102703.44
2022-08-07T02:20:23.798Z,102699.97
2022-08-07T02:22:57.565Z,102703.44
2022-08-07T02:26:10.770Z,102704.41
2022-08-07T02:28:25.393Z,102695.00
2022-08-07T02:30:54.979Z,102695.28
2022-08-07T02:33:24.231Z,102702.31
2022-08-07T02:36:27.005Z,102701.56
2022-08-07T02:38:50.614Z,102701.19
2022-08-07T02:41:24.959Z,102700.13
2022-08-07T02:44:01.486Z,102701.94
2022-08-07T02:46:31.665Z,102697.72
2022-08-07T02:48:58.514Z,102696.94
2022-08-07T02:51:42.568Z,102697.91
2022-08-07T02:54:20.281Z,102698.97
2022-08-07T02:56:48.645Z,102696.50
2022-08-07T02:59:19.778Z,102699.78
2022-08-07T03:01:52.042Z,102701.69
2022-08-07T03:04:23.243Z,102695.03
2022-08-07T03:06:52.877Z,102695.22
2022-08-07T03:09:43.182Z,102697.88
2022-08-07T03:12:22.027Z,102694.25
2022-08-07T03:14:52.035Z,102693.50
2022-08-07T03:17:19.848Z,102688.59
2022-08-07T03:19:54.446Z,102691.38
2022-08-07T03:22:24.146Z,102695.63
2022-08-07T03:24:57.258Z,102690.50
2022-08-07T03:27:30.431Z,102689.50
2022-08-07T03:29:58.738Z,102698.50
2022-08-07T03:32:32.205Z,102695.88
2022-08-07T03:35:17.748Z,102693.94
2022-08-07T03:37:53.926Z,102684.25
2022-08-07T03:40:23.557Z,102684.47
2022-08-07T03:42:55.212Z,102686.94
2022-08-07T03:45:30.827Z,102686.03
2022-08-07T03:47:58.874Z,102685.22
2022-08-07T03:50:25.908Z,102685.28
2022-08-07T03:53:00.247Z,102687.25
2022-08-07T03:55:53.400Z,102686.59
2022-08-07T03:59:05.370Z,102684.81
2022-08-07T04:01:07.381Z,102687.34
2022-08-07T04:03:49.532Z,102671.69
2022-08-07T04:06:37.787Z,102685.03
2022-08-07T04:09:03.717Z,102689.59
2022-08-07T04:12:23.945Z,102682.50
2022-08-07T04:14:38.186Z,102684.94
2022-08-07T04:17:20.418Z,102685.84
2022-08-07T04:19:51.966Z,102683.50
2022-08-07T04:22:19.994Z,102683.59
2022-08-07T04:24:50.572Z,102685.59
2022-08-07T04:27:25.521Z,102685.75
2022-08-07T04:30:04.476Z,102692.81
2022-08-07T04:32:37.723Z,102691.97
2022-08-07T04:35:06.441Z,102695.25
2022-08-07T04:38:00.907Z,102692.69
2022-08-07T04:40:29.713Z,102699.53
2022-08-07T04:43:01.904Z,102697.66
2022-08-07T04:45:52.119Z,102700.31
2022-08-07T04:48:51.072Z,102702.91
2022-08-07T04:51:33.474Z,102702.91
2022-08-07T04:54:22.642Z,102707.06
2022-08-07T04:58:12.972Z,102712.31
2022-08-07T05:00:18.701Z,102711.22
2022-08-07T05:03:17.225Z,102705.88
2022-08-07T05:06:16.299Z,102704.06
2022-08-07T05:09:00.862Z,102704.78
2022-08-07T05:11:57.087Z,102705.69
2022-08-07T05:14:53.407Z,102704.00
2022-08-07T05:17:52.390Z,102706.63
2022-08-07T05:20:13.733Z,102713.38
2022-08-07T05:22:43.572Z,102718.59
2022-08-07T05:25:37.346Z,102717.59
2022-08-07T05:28:20.492Z,102709.66
2022-08-07T05:30:49.940Z,102719.22
2022-08-07T05:33:21.282Z,102716.56
2022-08-07T05:35:51.097Z,102704.13
2022-08-07T05:39:00.673Z,102714.22
2022-08-07T05:41:14.155Z,102708.75
2022-08-07T05:44:01.317Z,102702.34
2022-08-07T05:46:37.510Z,102708.19
2022-08-07T05:49:12.115Z,102706.28
2022-08-07T05:51:41.281Z,102703.53
2022-08-07T05:54:19.537Z,102707.13
2022-08-07T05:56:57.856Z,102718.13
2022-08-07T05:59:26.207Z,102721.88
2022-08-07T06:01:55.918Z,102729.13
2022-08-07T06:04:29.994Z,102724.34
2022-08-07T06:07:03.909Z,102717.53
2022-08-07T06:10:03.162Z,102711.63
2022-08-07T06:12:18.640Z,102714.25
2022-08-07T06:14:49.539Z,102710.63
2022-08-07T06:17:23.158Z,102715.75
2022-08-07T06:20:04.194Z,102721.81
2022-08-07T06:22:38.810Z,102721.19
2022-08-07T06:25:06.175Z,102722.47
2022-08-07T06:27:59.798Z,102728.19
2022-08-07T06:30:35.167Z,102724.47
2022-08-07T06:33:03.811Z,102720.06
2022-08-07T06:35:45.610Z,102724.38
2022-08-07T06:38:20.616Z,102714.53
2022-08-07T06:40:51.349Z,102722.16
2022-08-07T06:43:23.597Z,102724.78
2022-08-07T06:45:50.826Z,102720.09
2022-08-07T06:48:25.079Z,102719.03
2022-08-07T06:50:54.695Z,102723.16
2022-08-07T06:55:28.773Z,102719.41
2022-08-07T06:56:15.383Z,102721.75
2022-08-07T07:00:12.872Z,102718.84
2022-08-07T07:01:43.858Z,102721.81
2022-08-07T07:04:28.007Z,102717.06
2022-08-07T07:07:01.314Z,102719.44
2022-08-07T07:09:31.083Z,102716.75
2022-08-07T07:12:08.868Z,102722.81
2022-08-07T07:15:03.412Z,102727.63
2022-08-07T07:17:58.114Z,102729.13
2022-08-07T07:20:33.530Z,102721.63
2022-08-07T07:24:05.978Z,102735.31
2022-08-07T07:26:32.363Z,102735.03
2022-08-07T07:29:39.250Z,102738.22
2022-08-07T07:31:44.435Z,102740.78
2022-08-07T07:34:19.730Z,102740.41
2022-08-07T07:36:53.999Z,102732.34
2022-08-07T07:39:23.023Z,102730.56
2022-08-07T07:42:08.847Z,102730.97
2022-08-07T07:44:44.273Z,102729.50
2022-08-07T07:47:23.939Z,102721.16
2022-08-07T07:50:34.081Z,102724.09
2022-08-07T07:52:40.971Z,102720.00
2022-08-07T07:55:11.063Z,102720.44
2022-08-07T07:57:51.625Z,102724.81
2022-08-07T08:00:29.795Z,102713.81
2022-08-07T08:04:06.089Z,102706.41
2022-08-07T08:06:06.313Z,102711.38
2022-08-07T08:08:36.977Z,102706.88
2022-08-07T08:11:13.556Z,102705.50
2022-08-07T08:13:54.007Z,102704.84
2022-08-07T08:16:26.267Z,102705.03
2022-08-07T08:18:58.200Z,102709.97
2022-08-07T08:21:55.334Z,102711.09
2022-08-07T08:25:04.385Z,102701.31
2022-08-07T08:27:43.970Z,102691.34
2022-08-07T08:30:25.802Z,102698.31
2022-08-07T08:32:59.465Z,102690.91
2022-08-07T08:35:28.804Z,102702.88
2022-08-07T08:38:01.387Z,102698.53
2022-08-07T08:40:43.867Z,102693.66
2022-08-07T08:43:42.768Z,102690.50
2022-08-07T08:46:25.545Z,102692.25
2022-08-07T08:49:06.733Z,102687.59
2022-08-07T08:51:49.566Z,102691.28
2022-08-07T08:54:44.950Z,102679.75
2022-08-07T08:57:42.299Z,102677.59
2022-08-07T09:00:12.540Z,102679.78
2022-08-07T09:02:39.079Z,102679.22
2022-08-07T09:05:45.733Z,102676.56
2022-08-07T09:08:41.773Z,102679.78
2022-08-07T09:11:43.321Z,102678.75
2022-08-07T09:14:31.808Z,102671.75
2022-08-07T09:17:13.659Z,102677.25
2022-08-07T09:19:57.343Z,102679.03
2022-08-07T09:24:31.770Z,102672.50
2022-08-07T09:25:32.478Z,102675.63
2022-08-07T09:30:01.317Z,102677.88
2022-08-07T09:31:06.539Z,102672.13
2022-08-07T09:34:08.369Z,102672.88
2022-08-07T09:36:43.173Z,102679.28
2022-08-07T09:39:54.900Z,102673.88
2022-08-07T09:42:22.954Z,102674.84
2022-08-07T09:47:25.421Z,102665.50
2022-08-07T09:49:02.224Z,102668.06
2022-08-07T09:52:34.685Z,102678.59
2022-08-07T09:55:28.883Z,102665.25
2022-08-07T09:58:32.432Z,102659.38
2022-08-07T10:01:50.450Z,102655.78
2022-08-07T10:04:32.475Z,102660.25
2022-08-07T10:07:25.670Z,102654.53
2022-08-07T10:10:06.968Z,102654.34
2022-08-07T10:13:29.724Z,102642.94
2022-08-07T10:16:35.443Z,102638.31
2022-08-07T10:19:20.279Z,102636.72
2022-08-07T10:22:15.909Z,102625.75
2022-08-07T10:25:07.905Z,102634.56
2022-08-07T10:28:02.517Z,102622.31
2022-08-07T10:31:11.005Z,102617.81
2022-08-07T10:34:15.609Z,102618.56
2022-08-07T10:37:14.502Z,102615.50
2022-08-07T10:40:10.383Z,102617.81
2022-08-07T10:43:05.473Z,102612.63
2022-08-07T10:45:58.090Z,102605.44
2022-08-07T10:48:36.077Z,102609.56
2022-08-07T10:51:16.301Z,102603.81
2022-08-07T10:54:35.565Z,102602.34
2022-08-07T10:57:34.659Z,102602.53
2022-08-07T11:00:39.189Z,102590.13
2022-08-07T11:03:14.598Z,102591.00
2022-08-07T11:05:51.969Z,102585.03
2022-08-07T11:08:54.527Z,102589.69
2022-08-07T11:11:35.653Z,102585.84
2022-08-07T11:14:45.854Z,102590.19
2022-08-07T11:17:23.193Z,102576.66
2022-08-07T11:22:38.263Z,102574.75
2022-08-07T11:25:36.083Z,102564.44
2022-08-07T11:28:17.502Z,102565.56
2022-08-07T11:30:54.137Z,102563.91
2022-08-07T11:33:58.698Z,102567.75
2022-08-07T11:36:34.135Z,102563.28
2022-08-07T11:39:19.311Z,102561.72
2022-08-07T11:42:03.345Z,102561.72
2022-08-07T11:44:58.025Z,102560.28
2022-08-07T11:47:56.280Z,102556.81
2022-08-07T11:50:58.354Z,102547.47
2022-08-07T11:54:09.789Z,102551.69
2022-08-07T11:56:52.429Z,102539.19
2022-08-07T12:00:10.493Z,102549.13
2022-08-07T12:02:32.681Z,102537.78
2022-08-07T12:05:15.212Z,102530.16
2022-08-07T12:08:25.961Z,102529.19
2022-08-07T12:11:20.599Z,102539.34
2022-08-07T12:14:01.185Z,102536.72
2022-08-07T12:16:34.286Z,102536.09
2022-08-07T12:20:02.621Z,102541.19
2022-08-07T12:22:47.333Z,102538.41
2022-08-07T12:26:02.823Z,102538.63
2022-08-07T12:29:01.072Z,102535.72
2022-08-07T12:31:52.685Z,102542.00
2022-08-07T12:34:34.205Z,102537.91
2022-08-07T12:37:08.188Z,102537.81
2022-08-07T12:39:51.365Z,102538.53
2022-08-07T12:42:27.160Z,102539.66
2022-08-07T12:44:57.849Z,102535.53
2022-08-07T12:48:04.105Z,102529.34
2022-08-07T12:50:55.899Z,102532.28
2022-08-07T12:54:02.665Z,102533.09
2022-08-07T12:56:55.276Z,102531.28
2022-08-07T12:59:53.759Z,102533.56
2022-08-07T13:02:38.638Z,102530.31
2022-08-07T13:06:02.612Z,102531.28
2022-08-07T13:08:21.675Z,102526.53
2022-08-07T13:11:25.350Z,102517.25
2022-08-07T13:14:06.370Z,102510.81
2022-08-07T13:16:42.346Z,102509.31
2022-08-07T13:19:51.109Z,102515.09
2022-08-07T13:22:30.880Z,102511.22
2022-08-07T13:25:10.443Z,102515.97
2022-08-07T13:28:12.687Z,102508.34
2022-08-07T13:30:48.917Z,102510.50
2022-08-07T13:34:34.475Z,102505.47
2022-08-07T13:36:43.444Z,102492.69
2022-08-07T13:39:49.511Z,102493.13
2022-08-07T13:42:14.567Z,102494.34
2022-08-07T13:45:11.641Z,102495.94
2022-08-07T13:48:06.285Z,102494.25
2022-08-07T13:50:34.311Z,102498.25
2022-08-07T13:53:21.720Z,102495.84
2022-08-07T13:55:54.804Z,102494.28
2022-08-07T13:58:46.979Z,102498.06
2022-08-07T14:01:24.435Z,102500.06
2022-08-07T14:04:06.947Z,102497.75
2022-08-07T14:06:40.645Z,102504.06
2022-08-07T14:10:14.996Z,102490.34
2022-08-07T14:12:29.707Z,102489.69
2022-08-07T14:15:09.548Z,102491.44
2022-08-07T14:18:16.085Z,102482.63
2022-08-07T14:20:39.739Z,102489.22
2022-08-07T14:23:59.082Z,102488.91
2022-08-07T14:26:40.540Z,102491.16
2022-08-07T14:30:05.824Z,102484.22
2022-08-07T14:32:03.970Z,102493.69
2022-08-07T14:34:33.198Z,102489.59
2022-08-07T14:37:03.231Z,102487.75
2022-08-07T14:40:16.418Z,102488.91
2022-08-07T14:42:25.054Z,102492.38
2022-08-07T14:45:20.808Z,102496.63
2022-08-07T14:47:49.630Z,102488.25
2022-08-07T14:50:20.347Z,102491.84
2022-08-07T14:52:47.857Z,102484.41
2022-08-07T14:55:20.566Z,102480.94
2022-08-07T15:00:43.969Z,102475.44
2022-08-07T15:03:16.701Z,102476.69
2022-08-07T15:05:55.284Z,102472.03
2022-08-07T15:08:49.742Z,102476.13
2022-08-07T15:11:53.575Z,102474.56
2022-08-07T15:14:20.199Z,102481.31
2022-08-07T15:20:33.265Z,102464.88
2022-08-07T15:22:53.602Z,102461.38
2022-08-07T15:25:25.925Z,102462.94
2022-08-07T15:31:04.922Z,102467.41
2022-08-07T15:33:36.286Z,102467.00
2022-08-07T15:36:07.669Z,102460.66
2022-08-07T15:42:44.931Z,102451.38
2022-08-07T15:44:20.621Z,102457.94
2022-08-07T15:46:58.732Z,102451.69
2022-08-07T15:52:29.692Z,102456.91
2022-08-07T15:55:02.437Z,102461.19
2022-08-07T15:57:47.407Z,102450.38
2022-08-07T16:00:31.099Z,102451.78
2022-08-07T16:03:03.302Z,102445.47
2022-08-07T16:05:33.787Z,102448.97
2022-08-07T16:08:30.227Z,102442.13
2022-08-07T16:11:02.875Z,102448.19
2022-08-07T16:13:58.524Z,102448.94
2022-08-07T16:16:42.939Z,102444.88
2022-08-07T16:19:41.918Z,102443.91
2022-08-07T16:22:55.634Z,102442.88
2022-08-07T16:25:54.513Z,102437.38
2022-08-07T16:30:07.633Z,102447.25
2022-08-07T16:31:57.657Z,102443.31
2022-08-07T16:34:27.359Z,102449.22
2022-08-07T16:38:03.478Z,102439.06
2022-08-07T16:40:28.422Z,102441.16
2022-08-07T16:44:02.583Z,102445.59
2022-08-07T16:47:05.834Z,102449.28
2022-08-07T16:50:20.713Z,102441.66
2022-08-07T16:52:51.494Z,102452.41
2022-08-07T16:55:17.470Z,102447.84
2022-08-07T16:58:03.986Z,102448.44
2022-08-07T17:00:44.396Z,102449.41
2022-08-07T17:03:18.514Z,102447.13
2022-08-07T17:06:02.264Z,102440.56
2022-08-07T17:09:10.601Z,102444.03
2022-08-07T17:12:04.115Z,102438.84
2022-08-07T17:14:44.944Z,102445.47
2022-08-07T17:17:46.667Z,102445.84
2022-08-07T17:20:37.711Z,102441.13
2022-08-07T17:23:32.559Z,102438.81
2022-08-07T17:26:05.829Z,102442.41
2022-08-07T17:30:13.205Z,102439.53
2022-08-07T17:32:29.982Z,102440.47
2022-08-07T17:35:49.629Z,102436.63
2022-08-07T17:38:13.606Z,102436.38
2022-08-07T17:42:04.347Z,102433.59
2022-08-07T17:44:34.178Z,102443.28
2022-08-07T17:47:41.793Z,102441.81
2022-08-07T17:50:22.365Z,102438.28
2022-08-07T17:53:59.440Z,102440.69
2022-08-07T17:56:07.104Z,102435.34
2022-08-07T17:58:46.342Z,102438.47
2022-08-07T18:01:22.583Z,102441.00
2022-08-07T18:04:16.095Z,102435.00
2022-08-07T18:07:19.197Z,102432.06
2022-08-07T18:10:05.262Z,102438.28
2022-08-07T18:12:42.135Z,102443.00
2022-08-07T18:15:15.818Z,102443.97
2022-08-07T18:18:33.118Z,102447.22
2022-08-07T18:21:06.352Z,102444.66
2022-08-07T18:24:00.818Z,102457.03
2022-08-07T18:26:56.785Z,102450.66
2022-08-07T18:30:05.929Z,102452.34
2022-08-07T18:32:55.802Z,102455.09
2022-08-07T18:36:14.266Z,102458.94
2022-08-07T18:40:05.333Z,102453.56
2022-08-07T18:42:16.179Z,102460.44
2022-08-07T18:48:01.362Z,102458.97
2022-08-07T18:50:46.136Z,102462.56
2022-08-07T18:54:27.750Z,102464.00
2022-08-07T18:57:40.095Z,102465.75
2022-08-07T19:00:32.440Z,102474.97
2022-08-07T19:03:11.935Z,102469.88
2022-08-07T19:06:03.922Z,102468.53
2022-08-07T19:08:37.252Z,102474.16
2022-08-07T19:11:36.395Z,102470.75
2022-08-07T19:14:19.809Z,102471.94
2022-08-07T19:17:06.742Z,102479.66
2022-08-07T19:20:28.838Z,102480.63
2022-08-07T19:23:18.699Z,102474.88
2022-08-07T19:26:21.694Z,102472.00
2022-08-07T19:30:54.060Z,102483.13
2022-08-07T19:32:03.503Z,102487.69
2022-08-07T19:34:32.621Z,102492.56
2022-08-07T19:37:10.336Z,102487.25
2022-08-07T19:39:57.263Z,102501.25
2022-08-07T19:42:30.774Z,102509.00
2022-08-07T19:45:08.283Z,102507.59
2022-08-07T19:47:41.840Z,102508.88
2022-08-07T19:50:41.152Z,102508.75
2022-08-07T19:52:58.983Z,102511.63
2022-08-07T19:55:56.308Z,102522.84
2022-08-07T19:58:28.253Z,102515.53
2022-08-07T20:00:57.953Z,102521.34
2022-08-07T20:03:34.155Z,102514.28
2022-08-07T20:06:04.543Z,102515.94
2022-08-07T20:08:35.768Z,102521.75
2022-08-07T20:11:09.929Z,102518.81
2022-08-07T20:13:53.444Z,102521.03
2022-08-07T20:16:34.697Z,102525.69
2022-08-07T20:19:10.678Z,102531.06
2022-08-07T20:21:47.469Z,102528.50
2022-08-07T20:24:19.539Z,102521.28
2022-08-07T20:26:52.313Z,102531.78
2022-08-07T20:29:49.574Z,102524.81
2022-08-07T20:32:23.043Z,102535.47
2022-08-07T20:35:01.492Z,102531.66
2022-08-07T20:37:55.417Z,102529.91
2022-08-07T20:40:32.250Z,102537.19
2022-08-07T20:43:02.641Z,102532.81
2022-08-07T20:46:26.922Z,102527.63
2022-08-07T20:48:28.444Z,102535.84
2022-08-07T20:51:02.840Z,102526.25
2022-08-07T20:54:02.803Z,102530.66
2022-08-07T20:56:26.413Z,102533.97
2022-08-07T20:58:55.878Z,102538.50
2022-08-07T21:01:25.880Z,102534.28
2022-08-07T21:04:22.111Z,102530.78
2022-08-07T21:06:53.700Z,102539.28
2022-08-07T21:09:24.209Z,102535.56
2022-08-07T21:12:01.104Z,102543.97
2022-08-07T21:14:33.481Z,102544.25
2022-08-07T21:18:03.912Z,102542.56
2022-08-07T21:20:05.340Z,102540.75
2022-08-07T21:22:39.086Z,102551.22
2022-08-07T21:25:12.823Z,102542.25
2022-08-07T21:28:01.667Z,102545.31
2022-08-07T21:30:45.291Z,102541.03
2022-08-07T21:33:24.564Z,102539.53
2022-08-07T21:36:31.843Z,102538.78
2022-08-07T21:39:44.900Z,102540.88
2022-08-07T21:42:48.022Z,102539.38
2022-08-07T21:46:07.597Z,102535.88
2022-08-07T21:48:44.165Z,102537.09
2022-08-07T21:51:28.344Z,102532.84
2022-08-07T21:54:26.100Z,102538.13
2022-08-07T21:57:07.876Z,102540.72
2022-08-07T22:00:04.578Z,102540.00
2022-08-07T22:02:52.991Z,102549.16
2022-08-07T22:05:46.064Z,102544.34
2022-08-07T22:08:18.417Z,102548.66
2022-08-07T22:10:50.228Z,102547.66
2022-08-07T22:13:17.414Z,102550.47
2022-08-07T22:16:42.022Z,102548.09
2022-08-07T22:19:18.105Z,102554.88
2022-08-07T22:22:02.613Z,102554.41
2022-08-07T22:25:08.227Z,102550.81
2022-08-07T22:28:29.559Z,102552.13
2022-08-07T22:30:39.740Z,102547.19
2022-08-07T22:33:12.218Z,102555.47
2022-08-07T22:36:11.837Z,102556.50
2022-08-07T22:39:26.019Z,102558.22
2022-08-07T22:42:53.914Z,102557.13
2022-08-07T22:45:02.302Z,102558.16
2022-08-07T22:47:52.353Z,102557.66
2022-08-07T22:50:33.653Z,102569.00
2022-08-07T22:53:19.084Z,102565.72
2022-08-07T22:56:09.345Z,102569.66
2022-08-07T22:58:57.068Z,102569.56
2022-08-07T23:01:49.779Z,102568.69
2022-08-07T23:04:30.801Z,102569.66
2022-08-07T23:07:41.619Z,102570.84
2022-08-07T23:10:38.039Z,102569.69
2022-08-07T23:13:49.266Z,102576.72
2022-08-07T23:16:54.331Z,102584.22
2022-08-07T23:19:51.613Z,102574.34
2022-08-07T23:22:34.255Z,102568.81
2022-08-07T23:25:17.422Z,102569.41
2022-08-07T23:28:20.142Z,102572.13
2022-08-07T23:31:06.926Z,102572.41
2022-08-07T23:34:33.551Z,102570.25
2022-08-07T23:37:22.476Z,102566.78
2022-08-07T23:40:16.942Z,102571.41
2022-08-07T23:43:16.812Z,102569.09
2022-08-07T23:46:03.481Z,102573.09
2022-08-07T23:49:04.698Z,102570.53
2022-08-07T23:53:05.069Z,102575.81
2022-08-07T23:54:44.596Z,102568.16
2022-08-07T23:57:36.276Z,102575.44
